Gandia, Spain
Current Conditions -  °F | °C
As of 2:30 PM on Friday 19 Dec 2014 (Local Time) from LEVC Reporting Station
Clear Clear  
Wind Chill: 66°   Ceiling: Unl
Heat Index: 66°   Visibility: 6mi
Dew Point: 50°   Wind: 5mph
Humidity: 56%   Direction: 90°E
Pressure: 30.3"   Gusts: NA
Location:  38.97°N, 0.19°W
Report Text: LEVC 191330Z 09004KT 030V140 CAVOK 19/10 Q1026 NOSIG
Loading
Personal Weather Stations






























Interactive Weather Map New forecast layout! Learn more

10-Day Weather Forecast

Advertisements
Track Severe Weather on mobile